Time;durP1;ratioP1;P1;durP2;ratioP2;P2;SDS_P1;SDS_P2;PMS_P1;PMS_P2;Temp;Humidity;BMP_temperature;BMP_pressure;BME280_temperature;BME280_humidity;BME280_pressure;Samples;Min_cycle;Max_cycle;Signal;HPM_P1;HPM_P2
2022/04/28 00:00:34;;;;;;;20.95;11.22;;;;;;;5.16;68.90;101139.79;1664137;85;25797;-69
2022/04/28 00:03:02;;;;;;;20.93;11.20;;;;;;;5.14;69.04;101139.23;1671189;85;25571;-70
2022/04/28 00:05:29;;;;;;;18.62;10.80;;;;;;;5.13;69.15;101138.95;1670989;85;27911;-69
2022/04/28 00:07:56;;;;;;;17.07;11.08;;;;;;;5.10;69.20;101140.78;1671051;85;25477;-69
2022/04/28 00:10:23;;;;;;;19.17;11.05;;;;;;;5.07;69.17;101146.64;1671098;85;25436;-69
2022/04/28 00:12:49;;;;;;;18.98;10.72;;;;;;;5.05;69.35;101146.89;1671052;85;26359;-69
2022/04/28 00:15:15;;;;;;;17.95;11.03;;;;;;;5.04;69.44;101147.97;1671150;85;25419;-69
2022/04/28 00:17:41;;;;;;;17.37;10.35;;;;;;;5.03;69.36;101146.34;1671088;85;27338;-69
2022/04/28 00:20:09;;;;;;;17.45;9.98;;;;;;;5.00;69.34;101147.38;1671047;85;25753;-70
2022/04/28 00:22:36;;;;;;;18.10;10.78;;;;;;;4.97;69.33;101146.53;1671112;85;25721;-71
2022/04/28 00:25:05;;;;;;;19.40;10.65;;;;;;;4.96;69.31;101151.09;1671070;85;25728;-71
2022/04/28 00:27:31;;;;;;;16.35;10.50;;;;;;;4.94;69.22;101153.72;1671174;85;25501;-68
2022/04/28 00:29:57;;;;;;;19.07;11.15;;;;;;;4.93;69.01;101151.58;1647829;85;27432;-68
2022/04/28 00:32:24;;;;;;;17.65;10.70;;;;;;;4.91;68.97;101149.69;1671048;85;25751;-69
2022/04/28 00:34:50;;;;;;;21.02;10.82;;;;;;;4.91;69.13;101150.23;1671133;85;25594;-69
2022/04/28 00:37:18;;;;;;;17.32;11.35;;;;;;;4.88;68.84;101146.70;1671109;85;25657;-68
2022/04/28 00:39:45;;;;;;;20.85;10.80;;;;;;;4.88;69.28;101150.72;1671185;85;25688;-69
2022/04/28 00:42:15;;;;;;;22.25;11.63;;;;;;;4.83;69.50;101151.45;1671085;85;27404;-68
2022/04/28 00:44:42;;;;;;;18.27;11.40;;;;;;;4.79;69.53;101144.45;1671172;85;25625;-68
2022/04/28 00:47:09;;;;;;;21.48;12.25;;;;;;;4.77;69.54;101145.23;1671147;85;25555;-72
2022/04/28 00:52:23;;;;;;;20.55;12.33;;;;;;;4.75;69.91;101147.87;1671111;85;25471;-69
2022/04/28 00:54:53;;;;;;;22.37;11.88;;;;;;;4.75;70.04;101144.67;1671106;85;28043;-69
2022/04/28 00:57:21;;;;;;;22.45;11.83;;;;;;;4.75;70.21;101139.32;1671137;85;25686;-69
2022/04/28 00:59:49;;;;;;;23.47;12.80;;;;;;;4.75;70.13;101148.70;1668989;85;25469;-69
2022/04/28 01:02:18;;;;;;;19.52;11.53;;;;;;;4.76;70.26;101150.30;1664714;86;25597;-69
2022/04/28 01:04:47;;;;;;;21.30;11.67;;;;;;;4.77;70.37;101146.58;1665022;86;25615;-69
2022/04/28 01:07:13;;;;;;;20.45;12.73;;;;;;;4.78;70.38;101145.50;1664873;86;27300;-69
2022/04/28 01:09:41;;;;;;;18.40;11.90;;;;;;;4.81;70.64;101140.98;1664640;86;25626;-69
2022/04/28 01:12:14;;;;;;;21.23;11.78;;;;;;;4.83;70.76;101144.22;1664742;86;25417;-68
2022/04/28 01:14:45;;;;;;;17.67;10.98;;;;;;;4.86;70.88;101139.70;1664687;84;25642;-68
2022/04/28 01:17:12;;;;;;;19.02;11.08;;;;;;;4.88;70.78;101142.14;1664708;86;25435;-69
2022/04/28 01:19:39;;;;;;;20.60;11.30;;;;;;;4.90;70.57;101140.02;1664723;86;27350;-68
2022/04/28 01:22:07;;;;;;;20.57;11.80;;;;;;;4.91;70.54;101137.63;1664626;86;25263;-69
2022/04/28 01:24:33;;;;;;;18.57;11.80;;;;;;;4.96;70.76;101136.88;1664733;86;25558;-68
2022/04/28 01:27:02;;;;;;;27.70;12.58;;;;;;;4.96;70.91;101137.69;1664643;86;25623;-68
2022/04/28 01:29:33;;;;;;;21.00;11.80;;;;;;;4.97;70.94;101139.83;1664522;86;25628;-71
2022/04/28 01:32:01;;;;;;;19.17;11.85;;;;;;;4.98;71.06;101132.88;1664446;86;27358;-69
2022/04/28 01:34:27;;;;;;;21.70;12.28;;;;;;;4.99;71.02;101137.19;1664507;86;25474;-69
2022/04/28 01:36:55;;;;;;;19.73;12.00;;;;;;;5.01;71.10;101135.06;1664707;86;25523;-69
2022/04/28 01:39:21;;;;;;;22.32;12.70;;;;;;;5.05;71.14;101134.02;1664638;86;25614;-69
2022/04/28 01:41:49;;;;;;;20.15;11.97;;;;;;;5.05;71.22;101133.48;1664704;86;25589;-69
2022/04/28 01:44:15;;;;;;;26.73;12.93;;;;;;;5.07;71.03;101129.21;1664680;86;27356;-69
2022/04/28 01:46:42;;;;;;;20.10;12.05;;;;;;;5.08;71.01;101126.02;1664560;86;27216;-69
2022/04/28 01:49:08;;;;;;;22.67;12.82;;;;;;;5.09;71.05;101125.77;1664693;86;25572;-69
2022/04/28 01:57:03;;;;;;;24.25;12.75;;;;;;;5.04;70.58;101123.03;1664650;86;27309;-69
2022/04/28 01:59:29;;;;;;;21.45;12.90;;;;;;;5.01;70.81;101126.21;1664868;85;25636;-69
2022/04/28 02:01:55;;;;;;;19.85;11.88;;;;;;;4.98;70.85;101126.17;1674186;85;25600;-69
2022/04/28 02:04:22;;;;;;;24.52;13.38;;;;;;;4.93;70.80;101121.29;1674156;85;25630;-69
2022/04/28 02:06:48;;;;;;;19.23;12.03;;;;;;;4.87;70.89;101119.09;1674200;85;25425;-70
2022/04/28 02:09:14;;;;;;;19.60;11.20;;;;;;;4.82;70.48;101121.17;1674196;85;27358;-69
2022/04/28 02:11:40;;;;;;;22.30;11.90;;;;;;;4.75;70.73;101117.88;1674088;85;25741;-69
2022/04/28 02:14:06;;;;;;;24.52;13.50;;;;;;;4.69;70.71;101117.52;1674187;85;29647;-69
2022/04/28 02:16:32;;;;;;;21.65;13.22;;;;;;;4.61;70.68;101116.07;1674193;85;25657;-69
2022/04/28 02:18:58;;;;;;;20.68;12.50;;;;;;;4.55;70.65;101113.06;1674190;85;25568;-69
2022/04/28 02:21:24;;;;;;;23.02;13.88;;;;;;;4.50;70.66;101118.36;1674221;85;27399;-69
2022/04/28 02:23:50;;;;;;;22.13;12.50;;;;;;;4.42;70.69;101111.55;1674079;85;33089;-69
2022/04/28 02:26:16;;;;;;;21.50;14.10;;;;;;;4.33;70.72;101111.70;1674182;85;29626;-69
2022/04/28 02:28:43;;;;;;;18.27;12.00;;;;;;;4.26;70.89;101109.73;1674157;85;25669;-69
2022/04/28 02:31:09;;;;;;;24.77;14.60;;;;;;;4.18;71.04;101106.12;1674186;85;25641;-69
2022/04/28 02:33:35;;;;;;;24.70;14.40;;;;;;;4.11;71.18;101102.28;1674272;85;28047;-69
2022/04/28 02:36:01;;;;;;;19.35;12.07;;;;;;;4.04;71.31;101106.47;1674202;85;25257;-69
2022/04/28 02:38:27;;;;;;;21.30;13.20;;;;;;;4.00;71.57;101105.85;1674294;85;25629;-69
2022/04/28 02:40:53;;;;;;;19.17;12.65;;;;;;;3.94;71.56;101103.64;1674248;85;26333;-69
2022/04/28 02:43:19;;;;;;;21.65;12.80;;;;;;;3.92;71.74;101109.77;1674189;85;32416;-69
2022/04/28 02:45:46;;;;;;;19.67;12.95;;;;;;;3.86;71.83;101103.50;1674132;85;27563;-69
2022/04/28 02:48:12;;;;;;;20.43;12.78;;;;;;;3.86;72.23;101116.89;1674121;85;25427;-69
2022/04/28 02:50:38;;;;;;;20.32;12.63;;;;;;;3.83;72.49;101116.56;1674121;85;25597;-70
2022/04/28 02:53:04;;;;;;;21.07;13.18;;;;;;;3.81;72.76;101120.83;1674100;85;25623;-69
2022/04/28 02:55:30;;;;;;;21.73;12.95;;;;;;;3.79;72.74;101116.25;1674198;85;25419;-69
2022/04/28 02:57:56;;;;;;;24.65;13.98;;;;;;;3.77;72.81;101116.22;1674181;85;28153;-69
2022/04/28 03:00:22;;;;;;;23.15;13.93;;;;;;;3.74;72.83;101118.30;1673221;85;33139;-70
2022/04/28 03:02:48;;;;;;;26.23;13.48;;;;;;;3.74;72.90;101121.52;1671022;85;25407;-70
2022/04/28 03:05:14;;;;;;;27.60;13.55;;;;;;;3.69;73.05;101121.43;1670953;85;34691;-69
2022/04/28 03:10:46;;;;;;;32.17;16.95;;;;;;;3.67;73.31;101123.55;1671599;85;27349;-68
2022/04/28 03:13:01;;;;;;;45.63;20.08;;;;;;;3.66;73.45;101128.09;1669514;84;25481;-68
2022/04/28 03:15:27;;;;;;;28.30;15.75;;;;;;;3.63;73.42;101126.44;1670975;85;25498;-68
2022/04/28 03:17:53;;;;;;;26.40;14.83;;;;;;;3.63;73.50;101127.23;1670917;85;26206;-68
2022/04/28 03:20:19;;;;;;;25.65;13.65;;;;;;;3.62;73.32;101134.97;1671016;85;25466;-70
2022/04/28 03:22:45;;;;;;;23.62;13.72;;;;;;;3.58;73.40;101127.69;1670957;85;27345;-70
2022/04/28 03:25:11;;;;;;;24.00;14.05;;;;;;;3.55;73.41;101131.10;1670899;85;25743;-68
2022/04/28 03:27:37;;;;;;;25.27;13.60;;;;;;;3.56;73.55;101139.96;1670942;85;25644;-68
2022/04/28 03:30:06;;;;;;;25.52;13.83;;;;;;;3.54;73.59;101140.70;1670953;85;34818;-68
2022/04/28 03:32:32;;;;;;;26.15;13.83;;;;;;;3.53;73.53;101143.11;1671010;85;25490;-70
2022/04/28 03:34:58;;;;;;;23.22;13.25;;;;;;;3.52;73.55;101142.31;1670916;85;27560;-70
2022/04/28 03:37:24;;;;;;;29.25;13.90;;;;;;;3.52;73.53;101149.00;1670889;85;25662;-71
2022/04/28 03:39:50;;;;;;;26.48;14.47;;;;;;;3.49;73.61;101146.80;1670892;85;29673;-68
2022/04/28 03:42:17;;;;;;;22.65;13.28;;;;;;;3.48;73.67;101143.02;1671137;85;25648;-69
2022/04/28 03:44:43;;;;;;;20.65;13.65;;;;;;;3.47;73.62;101151.55;1671143;85;25429;-69
2022/04/28 03:47:10;;;;;;;24.75;13.80;;;;;;;3.48;73.95;101152.39;1671093;85;27349;-70
2022/04/28 03:49:36;;;;;;;21.65;12.85;;;;;;;3.48;74.01;101153.72;1671087;85;25573;-70
2022/04/28 03:52:03;;;;;;;25.23;14.00;;;;;;;3.48;74.07;101149.17;1671087;85;29648;-70
2022/04/28 03:54:29;;;;;;;28.67;13.85;;;;;;;3.48;74.15;101145.70;1671045;85;25634;-69
2022/04/28 03:56:55;;;;;;;23.87;13.53;;;;;;;3.49;74.03;101146.80;1671111;85;32773;-70
2022/04/28 03:59:21;;;;;;;22.48;13.50;;;;;;;3.52;74.04;101151.67;1671063;85;28185;-69
2022/04/28 04:01:48;;;;;;;24.27;13.65;;;;;;;3.55;74.27;101152.50;1670915;85;33076;-69
2022/04/28 04:04:14;;;;;;;21.77;13.43;;;;;;;3.59;74.29;101155.50;1671084;85;25428;-69
2022/04/28 04:06:41;;;;;;;19.27;11.75;;;;;;;3.62;74.27;101156.91;1671033;85;25642;-68
2022/04/28 04:09:08;;;;;;;20.65;12.68;;;;;;;3.64;74.52;101148.91;1671082;85;25418;-69
2022/04/28 04:11:34;;;;;;;25.05;14.65;;;;;;;3.70;74.59;101157.31;1671073;85;27388;-69
2022/04/28 04:14:00;;;;;;;22.25;13.45;;;;;;;3.73;74.43;101150.15;1670993;85;25693;-69
2022/04/28 04:16:26;;;;;;;21.12;13.20;;;;;;;3.77;74.31;101153.69;1671133;85;29563;-69
2022/04/28 04:18:52;;;;;;;23.77;12.88;;;;;;;3.80;74.42;101146.48;1671088;85;34786;-68
2022/04/28 04:21:20;;;;;;;17.98;12.47;;;;;;;3.87;74.75;101159.20;1671117;85;25383;-69
2022/04/28 04:23:46;;;;;;;20.90;12.40;;;;;;;3.94;74.91;101163.87;1671121;85;27327;-69
2022/04/28 04:26:12;;;;;;;24.65;13.83;;;;;;;4.05;75.17;101163.49;1671115;85;25601;-69
2022/04/28 04:28:39;;;;;;;20.57;12.55;;;;;;;4.17;75.58;101172.27;1671099;85;25583;-70
2022/04/28 04:33:49;;;;;;;19.05;11.48;;;;;;;4.45;75.81;101161.16;1671188;85;25486;-75
2022/04/28 04:36:15;;;;;;;20.02;12.33;;;;;;;4.60;75.99;101165.92;1671112;85;27349;-75
2022/04/28 04:38:43;;;;;;;22.15;12.58;;;;;;;4.77;76.06;101167.22;1671043;85;25611;-76
2022/04/28 04:41:11;;;;;;;23.57;13.00;;;;;;;4.90;76.17;101153.95;1671493;85;25573;-76
2022/04/28 04:43:39;;;;;;;23.32;13.13;;;;;;;5.08;76.11;101162.23;1671232;85;26292;-77
2022/04/28 04:46:05;;;;;;;18.55;11.45;;;;;;;5.26;76.30;101167.77;1671262;85;25478;-77
2022/04/28 04:48:32;;;;;;;16.67;11.35;;;;;;;5.42;75.30;101171.70;1671319;85;27391;-70
2022/04/28 04:50:58;;;;;;;19.32;11.43;;;;;;;5.58;75.49;101174.03;1671010;85;25460;-70
2022/04/28 04:53:24;;;;;;;16.97;10.78;;;;;;;5.82;75.66;101178.25;1680161;84;25666;-69
2022/04/28 04:55:51;;;;;;;15.32;10.38;;;;;;;6.02;75.08;101173.63;1676644;85;34941;-69
2022/04/28 04:58:17;;;;;;;17.90;10.20;;;;;;;6.20;74.14;101178.60;1676783;85;25652;-69
2022/04/28 05:00:43;;;;;;;19.77;10.75;;;;;;;6.38;73.69;101176.56;1676678;85;27394;-69
2022/04/28 05:03:09;;;;;;;24.10;11.25;;;;;;;6.53;73.50;101165.91;1676630;85;25687;-69
2022/04/28 05:05:35;;;;;;;20.15;10.50;;;;;;;6.77;73.09;101173.56;1676806;85;25696;-69
2022/04/28 05:08:02;;;;;;;21.27;11.57;;;;;;;6.97;73.36;101170.16;1676750;85;26300;-69
2022/04/28 05:10:28;;;;;;;18.15;10.08;;;;;;;7.17;73.30;101167.54;1676717;85;25632;-70
2022/04/28 05:12:54;;;;;;;15.85;9.18;;;;;;;7.41;72.65;101171.10;1676679;85;27342;-69
2022/04/28 05:15:20;;;;;;;12.00;8.63;;;;;;;7.62;72.15;101177.32;1676614;85;33541;-69
2022/04/28 05:17:47;;;;;;;13.18;8.05;;;;;;;7.86;71.72;101173.56;1676693;85;25563;-69
2022/04/28 05:20:13;;;;;;;16.12;8.13;;;;;;;8.09;71.00;101178.14;1676672;85;25664;-69
2022/04/28 05:22:40;;;;;;;13.98;7.85;;;;;;;8.31;70.03;101179.20;1676734;85;25558;-70
2022/04/28 05:25:08;;;;;;;11.33;7.50;;;;;;;8.50;69.59;101174.09;1676530;85;28173;-70
2022/04/28 05:27:34;;;;;;;14.75;7.58;;;;;;;8.64;68.54;101172.43;1676218;85;25718;-69
2022/04/28 05:30:01;;;;;;;12.53;7.47;;;;;;;8.76;68.19;101181.56;1676613;85;25618;-70
2022/04/28 05:32:27;;;;;;;12.70;7.42;;;;;;;8.89;67.64;101170.75;1676588;85;25692;-70
2022/04/28 05:34:53;;;;;;;14.58;9.93;;;;;;;9.00;66.69;101174.20;1676596;85;25397;-69
2022/04/28 05:37:21;;;;;;;13.78;7.97;;;;;;;9.13;66.71;101179.00;1676673;85;27444;-68
2022/04/28 05:39:48;;;;;;;8.85;6.42;;;;;;;9.28;66.48;101185.67;1652928;85;25687;-69
2022/04/28 05:42:15;;;;;;;10.45;6.95;;;;;;;9.44;65.98;101184.23;1676614;85;25559;-68
2022/04/28 05:47:26;;;;;;;12.03;7.80;;;;;;;9.79;65.14;101185.89;1676696;85;25382;-69
2022/04/28 05:49:53;;;;;;;16.45;10.82;;;;;;;10.06;64.64;101187.28;1676613;85;27383;-69
2022/04/28 05:52:20;;;;;;;17.35;10.75;;;;;;;10.24;63.28;101187.14;1676598;85;25622;-70
2022/04/28 05:54:46;;;;;;;15.70;9.98;;;;;;;10.40;63.54;101189.17;1676596;85;25433;-70
2022/04/28 05:57:12;;;;;;;12.93;9.10;;;;;;;10.55;62.51;101193.07;1676576;85;34797;-69
2022/04/28 05:59:39;;;;;;;17.15;9.68;;;;;;;10.70;61.75;101198.88;1676687;85;25654;-69
2022/04/28 06:02:07;;;;;;;19.87;9.85;;;;;;;10.87;61.62;101203.03;1667367;85;27344;-70
2022/04/28 06:04:34;;;;;;;13.98;9.98;;;;;;;11.00;61.06;101202.34;1657223;86;25663;-69
2022/04/28 06:06:59;;;;;;;24.90;10.48;;;;;;;11.19;60.75;101200.45;1657347;86;25596;-69
2022/04/28 06:09:26;;;;;;;16.85;8.93;;;;;;;11.38;60.25;101200.47;1657286;86;26400;-70
2022/04/28 06:11:52;;;;;;;21.82;9.00;;;;;;;11.52;59.80;101203.25;1657405;86;25438;-70
2022/04/28 06:14:18;;;;;;;14.55;9.20;;;;;;;11.76;59.59;101199.66;1657365;86;27998;-69
2022/04/28 06:16:44;;;;;;;14.83;8.70;;;;;;;12.06;59.42;101205.74;1657183;86;25402;-69
2022/04/28 06:19:10;;;;;;;13.45;8.63;;;;;;;12.33;58.55;101200.94;1657293;86;25737;-69
2022/04/28 06:21:37;;;;;;;11.93;8.10;;;;;;;12.68;58.83;101202.20;1657275;86;25675;-69
2022/04/28 06:24:04;;;;;;;15.53;8.80;;;;;;;12.97;57.46;101205.14;1657356;86;25573;-68
2022/04/28 06:26:31;;;;;;;11.30;7.60;;;;;;;13.11;56.80;101206.51;1657383;86;27332;-69
2022/04/28 06:28:57;;;;;;;12.73;8.35;;;;;;;13.19;56.63;101204.98;1657242;86;25514;-69
2022/04/28 06:31:23;;;;;;;11.57;8.48;;;;;;;13.26;55.54;101204.00;1657352;86;29731;-69
2022/04/28 06:33:49;;;;;;;15.90;8.20;;;;;;;13.28;55.16;101201.81;1657277;86;25487;-69
2022/04/28 06:36:17;;;;;;;12.47;6.95;;;;;;;13.38;55.00;101204.86;1657961;86;25144;-69
2022/04/28 06:38:43;;;;;;;11.60;7.03;;;;;;;13.46;54.74;101204.14;1658244;86;27324;-69
2022/04/28 06:41:09;;;;;;;9.20;6.35;;;;;;;13.58;54.69;101204.97;1657180;86;25725;-69
2022/04/28 06:43:37;;;;;;;12.43;7.35;;;;;;;13.62;53.89;101212.75;1657259;86;25481;-69
2022/04/28 06:46:12;;;;;;;10.70;7.35;;;;;;;13.68;53.55;101214.25;1657361;86;25657;-69
2022/04/28 06:48:38;;;;;;;10.08;6.87;;;;;;;13.73;53.72;101220.93;1657368;86;25445;-70
2022/04/28 06:51:04;;;;;;;12.53;6.30;;;;;;;13.75;53.16;101220.06;1657313;86;27333;-69
2022/04/28 06:53:30;;;;;;;11.30;6.90;;;;;;;13.77;52.68;101217.86;1657227;86;33172;-69
2022/04/28 06:55:56;;;;;;;9.55;6.67;;;;;;;13.86;53.47;101215.20;1657292;86;25600;-69
2022/04/28 06:58:22;;;;;;;13.10;7.30;;;;;;;14.01;52.65;101222.99;1657236;86;25692;-69
2022/04/28 07:00:49;;;;;;;13.10;6.87;;;;;;;14.06;52.48;101220.69;1657311;86;25591;-70
2022/04/28 07:03:18;;;;;;;11.25;7.22;;;;;;;14.10;52.34;101214.89;1657333;84;27567;-69
2022/04/28 07:05:44;;;;;;;11.10;7.47;;;;;;;14.16;52.40;101219.07;1657161;86;25555;-69
2022/04/28 07:08:10;;;;;;;13.20;7.60;;;;;;;14.24;52.07;101219.45;1657349;86;25634;-69
2022/04/28 07:10:38;;;;;;;13.15;7.45;;;;;;;14.25;51.11;101221.05;1657211;86;25668;-69
2022/04/28 07:13:05;;;;;;;13.88;6.92;;;;;;;14.19;50.96;101226.62;1657272;86;25390;-70
2022/04/28 07:15:38;;;;;;;12.23;7.17;;;;;;;14.11;50.70;101223.27;1657210;86;27396;-70
2022/04/28 07:18:06;;;;;;;15.05;7.10;;;;;;;14.04;50.59;101228.92;1657245;86;25610;-70
2022/04/28 07:20:35;;;;;;;11.00;6.87;;;;;;;14.00;50.68;101232.81;1657351;86;25437;-71
2022/04/28 07:23:02;;;;;;;18.32;9.73;;;;;;;13.98;50.60;101233.13;1656616;86;26294;-70
2022/04/28 07:25:30;;;;;;;47.60;22.87;;;;;;;13.94;50.67;101232.68;1657308;86;25575;-69
2022/04/28 07:27:58;;;;;;;18.12;9.20;;;;;;;13.91;50.75;101238.20;1657273;86;27414;-70
2022/04/28 07:30:26;;;;;;;19.65;7.80;;;;;;;13.89;50.54;101236.88;1657277;86;25721;-70
2022/04/28 07:32:52;;;;;;;14.65;8.08;;;;;;;13.83;50.38;101238.36;1657361;86;25578;-70
2022/04/28 07:35:21;;;;;;;15.20;7.55;;;;;;;13.76;50.38;101238.56;1657217;86;25551;-70
2022/04/28 07:37:47;;;;;;;11.63;7.33;;;;;;;13.71;50.22;101239.47;1657387;86;25478;-71
2022/04/28 07:40:13;;;;;;;11.22;7.10;;;;;;;13.66;50.08;101240.16;1657245;86;29544;-70
2022/04/28 07:42:40;;;;;;;14.53;7.35;;;;;;;13.62;50.06;101237.21;1657284;86;25540;-70
2022/04/28 07:45:07;;;;;;;15.50;8.20;;;;;;;13.63;50.03;101237.47;1649744;85;25803;-71
2022/04/28 07:47:33;;;;;;;18.70;8.35;;;;;;;13.59;49.78;101249.52;1642931;86;25691;-70
2022/04/28 07:50:00;;;;;;;13.32;7.55;;;;;;;13.56;49.95;101241.97;1651412;86;25398;-70
2022/04/28 07:52:26;;;;;;;12.03;7.28;;;;;;;13.57;49.83;101248.20;1643201;86;27296;-70
2022/04/28 07:54:52;;;;;;;14.10;7.70;;;;;;;13.54;49.66;101248.84;1653918;86;25401;-70
2022/04/28 07:57:22;;;;;;;14.70;7.78;;;;;;;13.52;49.77;101256.47;1646437;86;25622;-71
2022/04/28 07:59:46;;;;;;;11.75;7.90;;;;;;;13.51;49.76;101257.03;1647780;86;25667;-70
2022/04/28 08:02:14;;;;;;;16.07;8.38;;;;;;;13.55;50.14;101254.50;1659584;84;25770;-70
2022/04/28 08:04:40;;;;;;;16.45;8.38;;;;;;;13.66;50.17;101261.90;1673897;84;27500;-71
2022/04/28 08:07:07;;;;;;;14.35;8.43;;;;;;;13.81;50.46;101262.91;1683240;84;25644;-70
2022/04/28 08:09:33;;;;;;;14.63;9.08;;;;;;;14.01;50.50;101254.27;1686730;84;25487;-71
2022/04/28 08:11:59;;;;;;;15.83;8.45;;;;;;;14.16;50.20;101260.45;1694116;84;25873;-71
2022/04/28 08:14:25;;;;;;;13.80;7.83;;;;;;;14.33;49.97;101262.48;1673983;84;25705;-71
2022/04/28 08:16:53;;;;;;;13.78;9.15;;;;;;;14.50;49.88;101263.14;1688098;84;27347;-71
2022/04/28 08:19:20;;;;;;;18.60;9.28;;;;;;;14.65;49.63;101261.98;1692715;84;25473;-71
2022/04/28 08:21:47;;;;;;;12.50;8.45;;;;;;;14.75;49.50;101266.59;1697516;84;25564;-71
2022/04/28 08:24:13;;;;;;;14.20;8.35;;;;;;;14.83;49.12;101266.94;1679308;84;25743;-71
2022/04/28 08:26:40;;;;;;;16.57;8.38;;;;;;;14.92;48.87;101269.15;1685417;85;25552;-71
2022/04/28 08:29:08;;;;;;;19.95;8.98;;;;;;;14.99;48.79;101262.68;1680680;84;27505;-72
2022/04/28 08:31:43;;;;;;;16.17;8.58;;;;;;;15.13;48.69;101265.29;1688698;84;25630;-71
2022/04/28 08:34:03;;;;;;;13.05;8.40;;;;;;;15.20;48.23;101262.90;1650263;86;25635;-71
2022/04/28 08:36:29;;;;;;;18.85;8.53;;;;;;;15.21;47.92;101262.36;1641174;86;26155;-71
2022/04/28 08:38:55;;;;;;;12.15;7.85;;;;;;;15.24;47.79;101267.97;1653423;86;25504;-71
2022/04/28 08:41:34;;;;;;;11.18;7.95;;;;;;;15.30;47.80;101261.80;1644845;86;28086;-71
2022/04/28 08:44:04;;;;;;;14.78;8.55;;;;;;;15.46;47.60;101261.61;1643440;86;25816;-71
2022/04/28 08:49:23;;;;;;;11.45;7.35;;;;;;;15.89;47.58;101253.81;1644264;86;25719;-71
2022/04/28 08:51:55;;;;;;;10.48;7.33;;;;;;;16.16;46.98;101258.92;1645450;86;25718;-71
2022/04/28 08:54:25;;;;;;;12.55;7.08;;;;;;;16.32;46.27;101253.75;1651907;86;27324;-71
2022/04/28 08:56:54;;;;;;;10.70;6.50;;;;;;;16.51;45.90;101260.77;1630567;87;25436;-71
2022/04/28 08:59:22;;;;;;;10.67;6.70;;;;;;;16.65;45.17;101254.53;1646313;86;25533;-71
2022/04/28 09:01:50;;;;;;;10.55;6.92;;;;;;;16.72;44.89;101253.48;1645399;86;25486;-70
2022/04/28 09:04:17;;;;;;;9.35;6.05;;;;;;;16.84;45.03;101262.39;1654539;86;25416;-71
2022/04/28 09:06:46;;;;;;;11.35;6.42;;;;;;;17.08;45.02;101262.36;1646450;86;27907;-70
2022/04/28 09:09:16;;;;;;;11.20;5.67;;;;;;;17.15;44.13;101261.28;1637210;87;25614;-69
2022/04/28 09:11:45;;;;;;;7.83;5.60;;;;;;;17.25;43.61;101266.36;1650923;86;25638;-71
2022/04/28 09:14:15;;;;;;;11.48;6.10;;;;;;;17.38;43.51;101257.67;1647667;86;26348;-70
2022/04/28 09:17:01;;;;;;;9.33;6.00;;;;;;;17.62;43.55;101262.52;1655337;86;25692;-70
2022/04/28 09:19:34;;;;;;;10.05;6.28;;;;;;;17.94;43.49;101267.02;1649899;86;27380;-70
2022/04/28 09:22:13;;;;;;;12.33;6.17;;;;;;;18.31;42.88;101259.53;1648515;86;25644;-71
2022/04/28 09:24:45;;;;;;;9.10;5.85;;;;;;;18.76;42.56;101259.51;1643138;86;25680;-70
2022/04/28 09:27:13;;;;;;;9.90;6.42;;;;;;;19.18;41.57;101262.61;1653418;86;25651;-70
2022/04/28 09:29:39;;;;;;;8.25;6.22;;;;;;;19.55;41.00;101257.88;1651032;86;25583;-70
2022/04/28 09:32:15;;;;;;;10.23;6.00;;;;;;;20.10;40.64;101260.23;1647797;86;27322;-70
2022/04/28 09:34:47;;;;;;;10.93;6.05;;;;;;;20.43;40.06;101255.02;1655333;86;25630;-70
2022/04/28 09:37:20;;;;;;;9.95;5.83;;;;;;;20.79;39.42;101254.56;1645922;86;25894;-71
2022/04/28 09:42:39;;;;;;;8.18;4.70;;;;;;;22.07;38.58;101255.04;1576948;88;25729;-70
2022/04/28 09:45:06;;;;;;;7.42;4.33;;;;;;;22.64;37.20;101255.29;1643997;86;27520;-70
2022/04/28 09:47:33;;;;;;;6.70;4.80;;;;;;;23.32;36.91;101245.32;1643538;87;26526;-70
2022/04/28 09:50:00;;;;;;;5.42;4.15;;;;;;;23.88;36.16;101246.45;1644052;86;25659;-71
2022/04/28 09:52:30;;;;;;;10.00;4.33;;;;;;;24.46;35.28;101249.81;1645199;87;25478;-71
2022/04/28 09:55:03;;;;;;;6.50;3.98;;;;;;;24.69;34.16;101253.77;1614140;89;25296;-71
2022/04/28 09:57:29;;;;;;;5.50;4.20;;;;;;;25.00;33.67;101241.97;1643949;86;27834;-70
2022/04/28 09:59:58;;;;;;;5.10;4.17;;;;;;;25.31;32.82;101243.37;1643776;86;25720;-70
2022/04/28 10:02:27;;;;;;;;;;;;;;;25.52;32.61;101239.33;1646091;87;25697;-70
2022/04/28 10:04:55;;;;;;;4.67;3.67;;;;;;;25.66;31.68;101237.78;1638948;87;25673;-69
2022/04/28 10:07:23;;;;;;;4.40;3.70;;;;;;;25.92;32.00;101245.01;1610833;89;25646;-69
2022/04/28 10:09:52;;;;;;;4.15;3.80;;;;;;;26.25;31.57;101243.12;1621658;88;27449;-69
2022/04/28 10:12:22;;;;;;;6.47;3.55;;;;;;;26.68;31.13;101245.16;1621874;88;25765;-69
2022/04/28 10:14:49;;;;;;;8.33;4.03;;;;;;;26.88;30.53;101243.55;1621839;88;25634;-70
2022/04/28 10:17:22;;;;;;;7.92;3.65;;;;;;;27.23;29.88;101239.73;1638203;87;26543;-69
2022/04/28 10:19:56;;;;;;;8.98;4.33;;;;;;;27.44;29.11;101245.23;1638287;87;25710;-69
2022/04/28 10:22:30;;;;;;;7.08;5.50;;;;;;;27.46;28.85;101244.23;1638339;87;27348;-69
2022/04/28 10:33:21;;;;;;;8.33;5.58;;;;;;;28.48;27.54;101230.75;1638364;87;25697;-69
2022/04/28 10:35:56;;;;;;;6.75;4.55;;;;;;;28.52;26.42;101226.58;1638506;87;28008;-70
2022/04/28 10:38:31;;;;;;;4.97;4.20;;;;;;;28.57;26.61;101236.48;1637751;87;25474;-70
2022/04/28 10:41:07;;;;;;;5.17;4.35;;;;;;;28.54;26.55;101236.69;1636384;87;25636;-69
2022/04/28 10:43:38;;;;;;;10.50;4.60;;;;;;;28.69;26.08;101228.43;1619680;88;26098;-67
2022/04/28 10:46:13;;;;;;;5.70;3.77;;;;;;;28.66;25.43;101233.42;1619546;88;25678;-67
2022/04/28 10:48:44;;;;;;;6.80;3.80;;;;;;;28.54;25.71;101224.17;1619693;88;27370;-68
2022/04/28 10:51:26;;;;;;;3.58;3.27;;;;;;;28.82;25.92;101220.95;1619559;88;25604;-68
2022/04/28 10:54:07;;;;;;;6.92;3.65;;;;;;;29.21;25.68;101226.73;1619544;88;25791;-69
2022/04/28 10:56:47;;;;;;;6.10;4.00;;;;;;;29.22;25.34;101231.90;1619647;88;25741;-68
2022/04/28 10:59:35;;;;;;;7.95;4.12;;;;;;;28.56;24.90;101225.96;1619671;88;25760;-67
2022/04/28 11:02:16;;;;;;;7.00;4.42;;;;;;;28.44;25.78;101225.05;1622219;87;27359;-67
2022/04/28 11:04:46;;;;;;;8.78;4.95;;;;;;;28.79;25.39;101228.15;1609873;88;27118;-67
2022/04/28 11:07:20;;;;;;;22.73;14.53;;;;;;;28.92;25.43;101228.41;1606954;89;25688;-68
2022/04/28 11:09:55;;;;;;;7.08;4.83;;;;;;;29.05;25.13;101228.08;1606634;88;26157;-68
2022/04/28 11:12:25;;;;;;;5.62;4.25;;;;;;;29.29;25.26;101226.85;1603823;89;25693;-68
2022/04/28 11:15:03;;;;;;;5.45;4.00;;;;;;;29.63;24.91;101227.43;1603611;89;28044;-67
2022/04/28 11:17:32;;;;;;;6.08;4.08;;;;;;;29.72;24.73;101226.30;1603675;89;25707;-67
2022/04/28 11:20:09;;;;;;;4.60;4.20;;;;;;;29.78;24.25;101228.03;1603776;89;25712;-67
2022/04/28 11:22:35;;;;;;;6.92;4.00;;;;;;;29.87;24.09;101220.57;1603564;89;26306;-67
2022/04/28 11:25:15;;;;;;;5.53;4.42;;;;;;;29.60;23.69;101229.66;1603839;89;25710;-67
2022/04/28 11:27:43;;;;;;;5.87;3.80;;;;;;;28.70;23.50;101229.22;1603869;89;27391;-67
2022/04/28 11:30:19;;;;;;;9.20;4.47;;;;;;;27.71;23.78;101219.13;1603470;89;25821;-67
2022/04/28 11:32:53;;;;;;;7.28;4.50;;;;;;;26.90;24.24;101234.25;1603745;89;25735;-67
2022/04/28 11:35:22;;;;;;;6.45;4.08;;;;;;;26.15;24.69;101226.66;1603677;88;26301;-67
2022/04/28 11:37:55;;;;;;;4.78;4.20;;;;;;;25.94;25.89;101226.61;1603700;89;25666;-67
2022/04/28 11:40:24;;;;;;;5.83;4.03;;;;;;;26.33;26.21;101221.75;1603752;89;27397;-67
2022/04/28 11:43:00;;;;;;;4.42;3.75;;;;;;;26.89;25.86;101226.33;1585973;89;26400;-67
2022/04/28 11:45:32;;;;;;;6.70;3.87;;;;;;;27.07;25.76;101217.95;1603614;89;25834;-67
2022/04/28 11:48:01;;;;;;;4.90;3.75;;;;;;;27.20;25.29;101222.66;1603585;89;26013;-67
2022/04/28 11:50:30;;;;;;;5.90;3.93;;;;;;;27.25;25.11;101216.52;1603129;89;25614;-67
2022/04/28 11:53:04;;;;;;;7.75;4.05;;;;;;;27.35;25.23;101216.50;1602799;89;27387;-67